createdAt,value
2023-05-19T00:00:47.545Z,18.44
2023-05-19T00:03:15.324Z,18.45
2023-05-19T00:05:45.635Z,18.45
2023-05-19T00:08:12.412Z,18.46
2023-05-19T00:10:39.238Z,18.45
2023-05-19T00:13:05.978Z,18.44
2023-05-19T00:15:32.867Z,18.41
2023-05-19T00:17:59.652Z,18.39
2023-05-19T00:20:26.276Z,18.38
2023-05-19T00:22:52.836Z,18.38
2023-05-19T00:25:19.480Z,18.38
2023-05-19T00:27:46.099Z,18.38
2023-05-19T00:30:13.005Z,18.38
2023-05-19T00:32:40.749Z,18.37
2023-05-19T00:35:07.739Z,18.37
2023-05-19T00:37:34.371Z,18.37
2023-05-19T00:40:01.319Z,18.37
2023-05-19T00:42:27.947Z,18.39
2023-05-19T00:44:54.582Z,18.41
2023-05-19T00:47:21.177Z,18.41
2023-05-19T00:49:47.768Z,18.41
2023-05-19T00:52:14.785Z,18.42
2023-05-19T00:54:41.369Z,18.43
2023-05-19T00:57:08.073Z,18.44
2023-05-19T01:01:21.921Z,18.48
2023-05-19T01:03:49.883Z,18.47
2023-05-19T01:06:19.231Z,18.44
2023-05-19T01:08:46.489Z,18.41
2023-05-19T01:11:13.194Z,18.40
2023-05-19T01:13:41.905Z,18.40
2023-05-19T01:16:37.544Z,18.40
2023-05-19T01:19:10.981Z,18.41
2023-05-19T01:21:56.211Z,18.40
2023-05-19T01:24:34.010Z,18.38
2023-05-19T01:27:24.046Z,18.37
2023-05-19T01:30:28.756Z,18.37
2023-05-19T01:32:58.953Z,18.36
2023-05-19T01:35:26.280Z,18.36
2023-05-19T01:37:58.007Z,18.36
2023-05-19T01:40:25.060Z,18.36
2023-05-19T01:42:53.978Z,18.36
2023-05-19T01:45:21.895Z,18.36
2023-05-19T01:47:50.568Z,18.35
2023-05-19T01:50:18.486Z,18.34
2023-05-19T01:52:45.308Z,18.34
2023-05-19T01:55:11.944Z,18.35
2023-05-19T01:58:13.687Z,18.36
2023-05-19T02:00:56.280Z,18.36
2023-05-19T02:03:43.814Z,18.37
2023-05-19T02:06:31.253Z,18.39
2023-05-19T02:09:10.162Z,18.39
2023-05-19T02:11:38.610Z,18.39
2023-05-19T02:14:13.995Z,18.40
2023-05-19T02:16:40.673Z,18.41
2023-05-19T02:19:07.412Z,18.40
2023-05-19T02:21:34.189Z,18.36
2023-05-19T02:24:01.044Z,18.34
2023-05-19T02:26:27.742Z,18.29
2023-05-19T02:28:55.073Z,18.23
2023-05-19T02:31:22.083Z,18.20
2023-05-19T02:33:49.219Z,18.17
2023-05-19T02:36:15.951Z,18.13
2023-05-19T02:38:42.723Z,18.09
2023-05-19T02:41:09.404Z,18.06
2023-05-19T02:43:36.346Z,18.04
2023-05-19T02:46:03.077Z,18.03
2023-05-19T02:48:29.944Z,18.04
2023-05-19T02:50:56.945Z,18.04
2023-05-19T02:53:24.791Z,18.01
2023-05-19T02:55:51.520Z,18.00
2023-05-19T02:58:18.846Z,17.96
2023-05-19T03:00:45.664Z,17.94
2023-05-19T03:03:13.901Z,17.91
2023-05-19T03:05:41.673Z,17.90
2023-05-19T03:08:09.352Z,17.89
2023-05-19T03:10:36.422Z,17.88
2023-05-19T03:13:03.063Z,17.87
2023-05-19T03:15:30.685Z,17.88
2023-05-19T03:17:57.514Z,17.88
2023-05-19T03:20:24.678Z,17.89
2023-05-19T03:22:51.491Z,17.90
2023-05-19T03:25:18.902Z,17.91
2023-05-19T03:27:45.798Z,17.92
2023-05-19T03:30:13.381Z,17.95
2023-05-19T03:32:52.071Z,17.97
2023-05-19T03:35:19.086Z,17.99
2023-05-19T03:37:46.028Z,18.02
2023-05-19T03:40:13.753Z,18.05
2023-05-19T03:42:41.756Z,18.06
2023-05-19T03:45:09.158Z,18.07
2023-05-19T03:47:35.984Z,18.09
2023-05-19T03:50:10.653Z,18.10
2023-05-19T03:52:48.951Z,18.10
2023-05-19T03:55:24.202Z,18.10
2023-05-19T03:57:52.554Z,18.10
2023-05-19T04:00:19.316Z,18.12
2023-05-19T04:02:46.055Z,18.14
2023-05-19T04:05:12.989Z,18.13
2023-05-19T04:07:39.703Z,18.13
2023-05-19T04:10:07.465Z,18.11
2023-05-19T04:12:34.124Z,18.10
2023-05-19T04:15:00.994Z,18.09
2023-05-19T04:17:27.985Z,18.10
2023-05-19T04:19:55.330Z,18.09
2023-05-19T04:22:22.503Z,18.08
2023-05-19T04:24:50.611Z,18.06
2023-05-19T04:27:18.284Z,18.05
2023-05-19T04:29:46.163Z,18.03
2023-05-19T04:32:17.834Z,18.00
2023-05-19T04:34:47.843Z,17.99
2023-05-19T04:37:20.375Z,17.95
2023-05-19T04:39:48.335Z,17.93
2023-05-19T04:42:20.363Z,17.93
2023-05-19T04:44:49.428Z,17.90
2023-05-19T04:47:16.557Z,17.89
2023-05-19T04:49:43.387Z,17.89
2023-05-19T04:52:11.084Z,17.90
2023-05-19T04:54:38.641Z,17.89
2023-05-19T04:57:06.448Z,17.89
2023-05-19T04:59:36.131Z,17.89
2023-05-19T05:02:04.385Z,17.88
2023-05-19T05:04:31.298Z,17.89
2023-05-19T05:06:58.690Z,17.90
2023-05-19T05:09:25.524Z,17.90
2023-05-19T05:11:53.394Z,17.89
2023-05-19T05:14:20.529Z,17.89
2023-05-19T05:16:47.892Z,17.89
2023-05-19T05:19:17.595Z,17.90
2023-05-19T05:21:44.898Z,17.91
2023-05-19T05:24:12.233Z,17.92
2023-05-19T05:26:39.656Z,17.93
2023-05-19T05:29:06.670Z,17.94
2023-05-19T05:31:34.136Z,17.96
2023-05-19T05:34:02.148Z,17.98
2023-05-19T05:36:31.729Z,17.97
2023-05-19T05:38:59.962Z,17.98
2023-05-19T05:41:27.510Z,17.98
2023-05-19T05:43:54.283Z,17.99
2023-05-19T05:46:21.045Z,18.01
2023-05-19T05:48:48.133Z,18.02
2023-05-19T05:51:15.376Z,18.02
2023-05-19T05:53:43.470Z,18.04
2023-05-19T05:56:11.634Z,18.04
2023-05-19T05:58:44.154Z,18.06
2023-05-19T06:01:11.595Z,18.06
2023-05-19T06:03:42.038Z,18.07
2023-05-19T06:06:13.323Z,18.07
2023-05-19T06:08:40.378Z,18.07
2023-05-19T06:11:11.032Z,18.08
2023-05-19T06:13:39.223Z,18.09
2023-05-19T06:16:07.776Z,18.08
2023-05-19T06:18:44.095Z,18.07
2023-05-19T06:21:13.433Z,18.08
2023-05-19T06:23:41.104Z,18.06
2023-05-19T06:26:08.931Z,18.01
2023-05-19T06:28:35.788Z,18.00
2023-05-19T06:31:02.685Z,17.98
2023-05-19T06:33:48.128Z,17.98
2023-05-19T06:36:15.314Z,17.96
2023-05-19T06:38:42.530Z,17.96
2023-05-19T06:41:09.544Z,17.93
2023-05-19T06:43:36.752Z,17.92
2023-05-19T06:46:04.197Z,17.91
2023-05-19T06:48:32.118Z,17.92
2023-05-19T06:50:58.921Z,17.93
2023-05-19T06:53:25.874Z,17.95
2023-05-19T06:55:58.864Z,17.97
2023-05-19T06:58:28.052Z,17.99
2023-05-19T07:00:55.506Z,18.02
2023-05-19T07:03:23.570Z,18.05
2023-05-19T07:05:50.457Z,18.09
2023-05-19T07:08:17.783Z,18.13
2023-05-19T07:10:45.044Z,18.18
2023-05-19T07:13:14.303Z,18.22
2023-05-19T07:15:41.230Z,18.27
2023-05-19T07:18:07.991Z,18.31
2023-05-19T07:20:35.607Z,18.35
2023-05-19T07:23:02.924Z,18.40
2023-05-19T07:25:30.648Z,18.44
2023-05-19T07:27:57.510Z,18.46
2023-05-19T07:30:24.278Z,18.50
2023-05-19T07:32:51.056Z,18.54
2023-05-19T07:35:17.752Z,18.60
2023-05-19T07:37:44.501Z,18.65
2023-05-19T07:40:11.822Z,18.70
2023-05-19T07:42:38.479Z,18.75
2023-05-19T07:45:06.118Z,18.80
2023-05-19T07:47:32.790Z,18.84
2023-05-19T07:49:59.487Z,18.88
2023-05-19T07:52:26.195Z,18.93
2023-05-19T07:54:53.307Z,18.95
2023-05-19T07:57:20.523Z,18.99
2023-05-19T07:59:47.321Z,19.03
2023-05-19T08:02:14.011Z,19.10
2023-05-19T08:04:40.753Z,19.17
2023-05-19T08:07:07.502Z,19.25
2023-05-19T08:09:34.158Z,19.34
2023-05-19T08:12:01.810Z,19.44
2023-05-19T08:14:28.462Z,19.56
2023-05-19T08:16:55.193Z,19.69
2023-05-19T08:19:21.960Z,19.83
2023-05-19T08:21:49.766Z,19.98
2023-05-19T08:24:16.793Z,20.14
2023-05-19T08:26:44.272Z,20.31
2023-05-19T08:29:10.997Z,20.47
2023-05-19T08:31:37.746Z,20.63
2023-05-19T08:34:04.611Z,20.75
2023-05-19T08:36:31.335Z,20.89
2023-05-19T08:38:57.978Z,21.06
2023-05-19T08:41:24.675Z,21.18
2023-05-19T08:43:51.331Z,21.18
2023-05-19T08:46:18.435Z,21.19
2023-05-19T08:48:45.455Z,21.24
2023-05-19T08:51:23.842Z,21.28
2023-05-19T08:53:51.647Z,21.27
2023-05-19T08:56:22.085Z,21.25
2023-05-19T08:58:52.521Z,21.27
2023-05-19T09:01:19.776Z,21.29
2023-05-19T09:03:47.385Z,21.34
2023-05-19T09:06:14.270Z,21.35
2023-05-19T09:08:42.361Z,21.33
2023-05-19T09:11:09.639Z,21.30
2023-05-19T09:13:36.312Z,21.31
2023-05-19T09:16:03.749Z,21.33
2023-05-19T09:18:30.609Z,21.34
2023-05-19T09:21:02.376Z,21.36
2023-05-19T09:23:30.387Z,21.35
2023-05-19T09:25:57.419Z,21.37
2023-05-19T09:28:28.045Z,21.43
2023-05-19T09:31:10.802Z,21.44
2023-05-19T09:33:38.793Z,21.40
2023-05-19T09:36:06.681Z,21.37
2023-05-19T09:38:33.640Z,21.40
2023-05-19T09:41:01.039Z,21.44
2023-05-19T09:43:28.378Z,21.45
2023-05-19T09:45:59.058Z,21.44
2023-05-19T09:48:27.756Z,21.46
2023-05-19T09:50:54.739Z,21.48
2023-05-19T09:53:21.765Z,21.48
2023-05-19T09:55:48.929Z,21.49
2023-05-19T09:58:18.920Z,21.49
2023-05-19T10:00:47.054Z,21.50
2023-05-19T10:03:13.903Z,21.52
2023-05-19T10:05:41.715Z,21.57
2023-05-19T10:08:10.415Z,21.64
2023-05-19T10:10:38.075Z,21.71
2023-05-19T10:13:06.016Z,21.75
2023-05-19T10:15:36.115Z,21.74
2023-05-19T10:18:05.177Z,21.79
2023-05-19T10:20:32.082Z,21.82
2023-05-19T10:22:59.002Z,21.84
2023-05-19T10:25:25.814Z,21.83
2023-05-19T10:27:57.902Z,21.79
2023-05-19T10:30:39.325Z,21.77
2023-05-19T10:33:08.247Z,21.80
2023-05-19T10:35:41.486Z,21.85
2023-05-19T10:38:53.523Z,21.86
2023-05-19T10:41:59.768Z,21.89
2023-05-19T10:44:52.035Z,21.95
2023-05-19T10:47:25.679Z,21.98
2023-05-19T10:49:53.924Z,21.97
2023-05-19T10:52:26.009Z,21.97
2023-05-19T10:54:54.722Z,21.97
2023-05-19T10:57:33.183Z,21.98
2023-05-19T11:00:09.908Z,22.03
2023-05-19T11:02:40.416Z,22.03
2023-05-19T11:05:15.091Z,22.03
2023-05-19T11:07:55.014Z,22.09
2023-05-19T11:10:24.961Z,22.22
2023-05-19T11:12:52.236Z,22.36
2023-05-19T11:15:19.009Z,22.52
2023-05-19T11:17:48.584Z,22.61
2023-05-19T11:20:25.120Z,22.69
2023-05-19T11:23:04.752Z,22.76
2023-05-19T11:25:51.642Z,22.78
2023-05-19T11:28:20.105Z,22.80
2023-05-19T11:30:50.704Z,22.73
2023-05-19T11:33:20.667Z,22.69
2023-05-19T11:35:49.317Z,22.59
2023-05-19T11:38:17.165Z,22.45
2023-05-19T11:40:43.828Z,22.35
2023-05-19T11:43:10.698Z,22.30
2023-05-19T11:45:37.581Z,22.26
2023-05-19T11:48:05.430Z,22.24
2023-05-19T11:50:32.572Z,22.12
2023-05-19T11:53:00.139Z,21.94
2023-05-19T11:55:27.246Z,21.89
2023-05-19T11:58:05.601Z,21.84
2023-05-19T12:00:38.009Z,21.75
2023-05-19T12:03:05.489Z,21.67
2023-05-19T12:05:35.493Z,21.57
2023-05-19T12:08:06.337Z,21.46
2023-05-19T12:10:34.427Z,21.45
2023-05-19T12:13:02.094Z,21.51
2023-05-19T12:15:28.801Z,21.55
2023-05-19T12:18:05.764Z,21.52
2023-05-19T12:20:32.763Z,21.63
2023-05-19T12:23:00.302Z,21.83
2023-05-19T12:25:26.986Z,21.87
2023-05-19T12:27:58.302Z,21.88
2023-05-19T12:30:27.104Z,21.92
2023-05-19T12:32:54.356Z,21.96
2023-05-19T12:35:23.415Z,21.91
2023-05-19T12:37:50.712Z,21.76
2023-05-19T12:40:17.547Z,21.60
2023-05-19T12:42:45.400Z,21.52
2023-05-19T12:45:12.051Z,21.53
2023-05-19T12:47:39.055Z,21.60
2023-05-19T12:50:08.212Z,21.64
2023-05-19T12:52:48.711Z,21.67
2023-05-19T12:55:16.671Z,21.67
2023-05-19T12:57:44.724Z,21.67
2023-05-19T13:00:21.111Z,21.69
2023-05-19T13:03:06.689Z,21.72
2023-05-19T13:05:38.075Z,21.78
2023-05-19T13:08:09.367Z,21.79
2023-05-19T13:10:37.264Z,21.68
2023-05-19T13:13:04.269Z,21.49
2023-05-19T13:15:34.486Z,21.36
2023-05-19T13:18:06.872Z,21.25
2023-05-19T13:20:35.237Z,21.19
2023-05-19T13:23:02.430Z,21.13
2023-05-19T13:25:29.144Z,21.09
2023-05-19T13:27:58.910Z,21.09
2023-05-19T13:30:25.878Z,21.06
2023-05-19T13:32:52.847Z,21.05
2023-05-19T13:35:20.384Z,20.98
2023-05-19T13:37:46.982Z,21.02
2023-05-19T13:40:13.814Z,21.05
2023-05-19T13:42:40.646Z,21.13
2023-05-19T13:45:08.138Z,21.18
2023-05-19T13:47:34.772Z,21.20
2023-05-19T13:50:02.849Z,21.20
2023-05-19T13:52:30.468Z,21.09
2023-05-19T13:54:57.530Z,21.03
2023-05-19T13:57:24.429Z,20.96
2023-05-19T14:00:01.994Z,20.93
2023-05-19T14:02:39.273Z,20.96
2023-05-19T14:05:07.093Z,20.98
2023-05-19T14:07:35.117Z,21.01
2023-05-19T14:10:06.872Z,21.05
2023-05-19T14:12:44.983Z,21.02
2023-05-19T14:15:19.812Z,21.01
2023-05-19T14:17:46.527Z,21.08
2023-05-19T14:20:13.283Z,21.13
2023-05-19T14:22:40.010Z,21.08
2023-05-19T14:25:07.537Z,21.01
2023-05-19T14:27:34.265Z,20.96
2023-05-19T14:30:00.979Z,20.94
2023-05-19T14:32:30.062Z,20.91
2023-05-19T14:34:57.237Z,20.93
2023-05-19T14:37:24.386Z,20.90
2023-05-19T14:39:51.058Z,20.85
2023-05-19T14:42:17.669Z,20.80
2023-05-19T14:44:44.371Z,20.69
2023-05-19T14:47:12.469Z,20.59
2023-05-19T14:49:39.348Z,20.58
2023-05-19T14:52:06.254Z,20.57
2023-05-19T14:54:33.123Z,20.54
2023-05-19T14:57:00.297Z,20.55
2023-05-19T14:59:27.466Z,20.56
2023-05-19T15:01:54.161Z,20.59
2023-05-19T15:04:21.111Z,20.60
2023-05-19T15:06:52.302Z,20.57
2023-05-19T15:09:25.513Z,20.55
2023-05-19T15:11:52.150Z,20.53
2023-05-19T15:14:18.793Z,20.49
2023-05-19T15:16:45.594Z,20.46
2023-05-19T15:19:12.478Z,20.40
2023-05-19T15:21:39.906Z,20.34
2023-05-19T15:24:06.886Z,20.32
2023-05-19T15:26:33.915Z,20.27
2023-05-19T15:29:00.553Z,20.22
2023-05-19T15:31:27.751Z,20.18
2023-05-19T15:33:54.700Z,20.15
2023-05-19T15:36:21.551Z,20.11
2023-05-19T15:38:48.203Z,20.08
2023-05-19T15:41:14.850Z,20.05
2023-05-19T15:43:41.698Z,20.05
2023-05-19T15:46:08.402Z,20.04
2023-05-19T15:48:35.406Z,20.03
2023-05-19T15:51:02.096Z,20.01
2023-05-19T15:53:29.064Z,19.99
2023-05-19T15:55:57.477Z,19.95
2023-05-19T15:58:24.152Z,19.92
2023-05-19T16:00:51.011Z,19.87
2023-05-19T16:03:17.831Z,19.84
2023-05-19T16:05:44.625Z,19.81
2023-05-19T16:08:11.660Z,19.79
2023-05-19T16:10:38.592Z,19.78
2023-05-19T16:13:05.265Z,19.77
2023-05-19T16:15:31.897Z,19.75
2023-05-19T16:17:58.704Z,19.76
2023-05-19T16:20:28.227Z,19.74
2023-05-19T16:22:55.598Z,19.73
2023-05-19T16:25:22.347Z,19.72
2023-05-19T16:27:49.107Z,19.70
2023-05-19T16:30:16.608Z,19.68
2023-05-19T16:32:43.410Z,19.68
2023-05-19T16:35:10.125Z,19.65
2023-05-19T16:37:36.777Z,19.62
2023-05-19T16:40:04.244Z,19.60
2023-05-19T16:42:32.021Z,19.58
2023-05-19T16:44:58.679Z,19.54
2023-05-19T16:47:25.559Z,19.52
2023-05-19T16:49:52.392Z,19.50
2023-05-19T16:52:19.073Z,19.49
2023-05-19T16:54:45.934Z,19.48
2023-05-19T16:57:14.925Z,19.47
2023-05-19T16:59:41.991Z,19.47
2023-05-19T17:02:08.725Z,19.45
2023-05-19T17:04:35.422Z,19.44
2023-05-19T17:07:02.060Z,19.43
2023-05-19T17:09:28.870Z,19.44
2023-05-19T17:11:56.021Z,19.44
2023-05-19T17:14:22.647Z,19.45
2023-05-19T17:16:49.979Z,19.47
2023-05-19T17:19:16.969Z,19.50
2023-05-19T17:21:43.625Z,19.53
2023-05-19T17:24:10.301Z,19.57
2023-05-19T17:26:37.292Z,19.59
2023-05-19T17:29:04.190Z,19.61
2023-05-19T17:31:32.339Z,19.62
2023-05-19T17:33:59.462Z,19.62
2023-05-19T17:36:26.468Z,19.62
2023-05-19T17:38:53.153Z,19.62
2023-05-19T17:41:19.902Z,19.62
2023-05-19T17:43:46.554Z,19.61
2023-05-19T17:46:13.535Z,19.59
2023-05-19T17:48:40.308Z,19.57
2023-05-19T17:51:07.526Z,19.54
2023-05-19T17:53:34.876Z,19.52
2023-05-19T17:56:03.311Z,19.50
2023-05-19T17:58:30.571Z,19.46
2023-05-19T18:00:57.434Z,19.38
2023-05-19T18:03:24.566Z,19.34
2023-05-19T18:05:51.712Z,19.29
2023-05-19T18:08:18.777Z,19.24
2023-05-19T18:10:51.585Z,19.18
2023-05-19T18:13:18.492Z,19.12
2023-05-19T18:15:45.168Z,19.06
2023-05-19T18:18:12.363Z,19.01
2023-05-19T18:20:41.129Z,18.95
2023-05-19T18:23:07.893Z,18.90
2023-05-19T18:25:35.333Z,18.84
2023-05-19T18:28:01.891Z,18.79
2023-05-19T18:30:28.597Z,18.76
2023-05-19T18:32:55.524Z,18.71
2023-05-19T18:35:22.259Z,18.66
2023-05-19T18:37:48.949Z,18.61
2023-05-19T18:40:15.691Z,18.55
2023-05-19T18:42:42.341Z,18.52
2023-05-19T18:45:09.612Z,18.49
2023-05-19T18:47:36.719Z,18.47
2023-05-19T18:50:04.185Z,18.43
2023-05-19T18:52:31.393Z,18.38
2023-05-19T18:54:59.650Z,18.35
2023-05-19T18:57:26.354Z,18.34
2023-05-19T18:59:53.144Z,18.34
2023-05-19T19:02:19.770Z,18.30
2023-05-19T19:04:46.417Z,18.28
2023-05-19T19:07:13.229Z,18.24
2023-05-19T19:09:43.685Z,18.21
2023-05-19T19:12:10.920Z,18.18
2023-05-19T19:14:38.548Z,18.09
2023-05-19T19:17:05.213Z,18.04
2023-05-19T19:19:32.344Z,18.00
2023-05-19T19:21:59.212Z,17.95
2023-05-19T19:24:26.701Z,17.90
2023-05-19T19:26:53.306Z,17.85
2023-05-19T19:29:21.940Z,17.79
2023-05-19T19:31:48.892Z,17.74
2023-05-19T19:34:15.768Z,17.71
2023-05-19T19:36:42.521Z,17.69
2023-05-19T19:39:09.534Z,17.66
2023-05-19T19:41:36.807Z,17.63
2023-05-19T19:44:03.682Z,17.61
2023-05-19T19:46:30.448Z,17.58
2023-05-19T19:49:00.396Z,17.54
2023-05-19T19:51:27.896Z,17.52
2023-05-19T19:53:54.651Z,17.52
2023-05-19T19:56:23.672Z,17.51
2023-05-19T19:58:51.163Z,17.52
2023-05-19T20:01:20.572Z,17.52
2023-05-19T20:03:48.107Z,17.53
2023-05-19T20:06:15.014Z,17.52
2023-05-19T20:08:41.696Z,17.52
2023-05-19T20:11:08.325Z,17.54
2023-05-19T20:13:34.965Z,17.54
2023-05-19T20:16:01.652Z,17.53
2023-05-19T20:18:29.883Z,17.51
2023-05-19T20:20:57.119Z,17.47
2023-05-19T20:23:23.985Z,17.45
2023-05-19T20:26:09.919Z,17.44
2023-05-19T20:28:37.444Z,17.40
2023-05-19T20:31:04.969Z,17.40
2023-05-19T20:33:32.081Z,17.39
2023-05-19T20:35:58.742Z,17.36
2023-05-19T20:38:25.466Z,17.34
2023-05-19T20:40:52.708Z,17.31
2023-05-19T20:43:19.396Z,17.23
2023-05-19T20:45:46.541Z,17.14
2023-05-19T20:48:13.350Z,17.11
2023-05-19T20:50:40.516Z,17.08
2023-05-19T20:53:07.585Z,17.04
2023-05-19T20:55:36.307Z,17.00
2023-05-19T20:58:03.141Z,16.93
2023-05-19T21:00:30.719Z,16.85
2023-05-19T21:02:57.507Z,16.78
2023-05-19T21:05:24.668Z,16.72
2023-05-19T21:07:51.400Z,16.66
2023-05-19T21:10:18.221Z,16.61
2023-05-19T21:12:44.910Z,16.60
2023-05-19T21:15:11.677Z,16.62
2023-05-19T21:17:38.404Z,16.61
2023-05-19T21:20:05.940Z,16.64
2023-05-19T21:22:32.798Z,16.61
2023-05-19T21:24:59.602Z,16.52
2023-05-19T21:27:26.262Z,16.44
2023-05-19T21:29:54.155Z,16.36
2023-05-19T21:32:21.396Z,16.29
2023-05-19T21:34:48.103Z,16.20
2023-05-19T21:37:16.428Z,16.14
2023-05-19T21:39:43.791Z,16.12
2023-05-19T21:42:10.495Z,16.14
2023-05-19T21:44:37.348Z,16.17
2023-05-19T21:47:04.066Z,16.13
2023-05-19T21:49:31.403Z,16.05
2023-05-19T21:51:58.335Z,15.97
2023-05-19T21:54:25.150Z,15.91
2023-05-19T21:56:51.835Z,15.85
2023-05-19T21:59:19.512Z,15.79
2023-05-19T22:01:46.851Z,15.75
2023-05-19T22:04:16.020Z,15.71
2023-05-19T22:06:43.310Z,15.66
2023-05-19T22:09:10.152Z,15.63
2023-05-19T22:11:36.810Z,15.60
2023-05-19T22:14:03.457Z,15.55
2023-05-19T22:16:31.209Z,15.52
2023-05-19T22:18:58.207Z,15.51
2023-05-19T22:21:25.855Z,15.49
2023-05-19T22:23:52.997Z,15.45
2023-05-19T22:26:19.907Z,15.40
2023-05-19T22:28:46.547Z,15.36
2023-05-19T22:31:13.196Z,15.31
2023-05-19T22:33:39.823Z,15.29
2023-05-19T22:36:06.863Z,15.29
2023-05-19T22:38:33.674Z,15.33
2023-05-19T22:41:00.343Z,15.35
2023-05-19T22:43:27.034Z,15.39
2023-05-19T22:45:53.733Z,15.45
2023-05-19T22:48:20.615Z,15.49
2023-05-19T22:50:47.253Z,15.54
2023-05-19T22:53:13.899Z,15.56
2023-05-19T22:55:40.511Z,15.59
2023-05-19T22:58:07.475Z,15.63
2023-05-19T23:00:34.134Z,15.64
2023-05-19T23:03:00.856Z,15.63
2023-05-19T23:05:27.545Z,15.60
2023-05-19T23:07:54.484Z,15.58
2023-05-19T23:10:21.110Z,15.56
2023-05-19T23:12:48.834Z,15.56
2023-05-19T23:15:15.800Z,15.55
2023-05-19T23:17:42.477Z,15.57
2023-05-19T23:20:09.874Z,15.55
2023-05-19T23:22:36.777Z,15.53
2023-05-19T23:25:07.927Z,15.51
2023-05-19T23:27:37.748Z,15.50
2023-05-19T23:30:05.119Z,15.51
2023-05-19T23:32:32.113Z,15.51
2023-05-19T23:35:09.283Z,15.49
2023-05-19T23:37:35.982Z,15.48
2023-05-19T23:40:02.821Z,15.49
2023-05-19T23:42:29.475Z,15.49
2023-05-19T23:44:56.123Z,15.49
2023-05-19T23:47:22.788Z,15.50
2023-05-19T23:49:49.588Z,15.50
2023-05-19T23:52:16.238Z,15.50
2023-05-19T23:54:42.867Z,15.49
2023-05-19T23:57:09.535Z,15.49
2023-05-19T23:59:36.464Z,15.49
